Nederlandse vliegveldverwachtingen (TAF)

Luchtvaartmeteorologische informatie voor operationeel gebruik en vluchtvoorbereiding is beschikbaar op www.luchtvaartmeteo.nl.

ZCZC
FC241600 EHWO     WOENSDRECHT/WOENSDRECHT   NLD   19 m.
TAF EHWO 241600Z NIL=

ZCZC
FC241600 EHVK     VOLKEL/VOLKEL   NLD   21 m.
TAF EHVK 241600Z NIL=

ZCZC
FC241600 EHLW     LEEUWARDEN/LEEUWARDEN   NLD   1 m.
TAF EHLW 241600Z NIL=

ZCZC
FC242000 EHGR AAA GILZE-RIJEN/GILZE-RIJEN   NLD   14 m.
TAF AMD EHGR 242213Z 2412/2505 CNL=

ZCZC
FC242100 EHKD     DE KOOY/DE KOOY   NLD   1 m.
TAF EHKD 242100Z NIL=

ZCZC
FT242300 EHAM     AMSTERDAM/SCHIPHOL   NLD   -3 m.
TAF EHAM 242303Z 2500/2606 28010KT 9999 SCT025
    PROB30 TEMPO 2500/2502 7000 -SHRA SCT018CB BKN035
    BECMG 2504/2507 30015G25KT
    TEMPO 2507/2512 32020G30KT 6000 SHRAGS SCT020CB BKN030
    BECMG 2515/2518 28007KT
    PROB30 TEMPO 2515/2606 33015G25KT 6000 SHRAGS SCT020CB=

ZCZC
FT242300 EHBK     MAASTRICHT/MAASTRICHT-AACHEN   NLD   114 m.
TAF EHBK 242307Z 2500/2606 25008KT 9999 BKN020
    TEMPO 2500/2507 6000 -DZRA SCT008 BKN012
    PROB40 TEMPO 2500/2507 3000 DZRA BKN008
    BECMG 2506/2509 28010KT
    PROB40 TEMPO 2510/2518 30015G25KT 4000 SHRA SCT018CB
    BECMG 2515/2518 31006KT
    PROB30 2603/2606 4000 BR MIFG=

ZCZC
FT242300 EHGG     GRONINGEN/EELDE   NLD   5 m.
TAF EHGG 242307Z 2500/2606 24005KT 9999 BKN030
    PROB40 TEMPO 2501/2507 7000 SHRA BKN015 SCT018CB
    BECMG 2506/2509 33014KT
    PROB40 TEMPO 2507/2512 27017G27KT 4000 SHRA SHRAGS BKN010
    SCT015CB
    BECMG 2516/2519 27006KT
    PROB30 TEMPO 2518/2522 7000 SHRA SCT018CB
    PROB30 2603/2606 4000 BR MIFG=

ZCZC
FT242300 EHRD     ROTTERDAM/THE HAGUE AIRPORT   NLD   -5 m.
TAF EHRD 242304Z 2500/2606 28010KT 9999 SCT025
    PROB30 TEMPO 2500/2502 7000 -SHRA SCT018CB BKN035
    BECMG 2504/2507 30015G25KT
    TEMPO 2507/2512 32020G30KT 6000 SHRAGS SCT020CB BKN030
    BECMG 2515/2518 28007KT
    PROB30 TEMPO 2515/2606 33015G25KT 6000 SHRAGS SCT020CB=

ZCZC
FT242300 EHEH     EINDHOVEN/EINDHOVEN   NLD   22 m.
TAF EHEH 242159Z 2500/2606 32010KT 9999 FEW015 BKN020
    TEMPO 2500/2505 SCT008 BKN012 OVC018
    TEMPO 2508/2516 32015G25KT 4500 SHRAGS FEW014 SCT020CB
    BKN025
    BECMG 2517/2520 26004KT=

25/04/2017 02.15 uur LT